Time;durP1;ratioP1;P1;durP2;ratioP2;P2;SDS_P1;SDS_P2;PMS_P1;PMS_P2;Temp;Humidity;BMP_temperature;BMP_pressure;BME280_temperature;BME280_humidity;BME280_pressure;Samples;Min_cycle;Max_cycle;Signal;HPM_P1;HPM_P2
2022/01/14 00:02:08;;;;;;;16.83;3.22;;;;;;;5.72;100.00;102921.22;5092064;28;20224;-40
2022/01/14 00:04:34;;;;;;;17.52;3.10;;;;;;;5.70;100.00;102914.97;5091687;28;20166;-43
2022/01/14 00:07:00;;;;;;;23.63;3.75;;;;;;;5.67;100.00;102927.34;5091798;28;20665;-42
2022/01/14 00:09:25;;;;;;;18.23;2.95;;;;;;;5.66;100.00;102907.81;5091728;28;20198;-47
2022/01/14 00:11:56;;;;;;;14.93;2.97;;;;;;;5.65;100.00;102900.72;5092082;28;20473;-41
2022/01/14 00:14:36;;;;;;;19.65;3.05;;;;;;;5.69;100.00;102902.56;5089943;28;20209;-46
2022/01/14 00:17:06;;;;;;;12.27;3.00;;;;;;;5.73;100.00;102907.06;5091897;28;20166;-42
2022/01/14 00:19:33;;;;;;;16.92;3.28;;;;;;;5.62;100.00;102910.41;5091932;28;20610;-43
2022/01/14 00:22:04;;;;;;;15.77;2.92;;;;;;;5.71;100.00;102897.28;5091600;28;20166;-42
2022/01/14 00:31:38;;;;;;;13.02;2.53;;;;;;;5.63;100.00;102894.47;5091897;28;20165;-42
2022/01/14 00:35:29;;;;;;;16.23;3.33;;;;;;;5.57;100.00;102891.72;5091375;28;20205;-39
2022/01/14 00:37:55;;;;;;;16.33;3.03;;;;;;;5.67;100.00;102887.47;5091211;28;20170;-41
2022/01/14 00:40:21;;;;;;;21.23;3.38;;;;;;;5.65;100.00;102892.75;5091364;28;20541;-40
2022/01/14 00:42:48;;;;;;;20.45;3.50;;;;;;;5.63;100.00;102888.28;5091175;28;20236;-40
2022/01/14 00:45:14;;;;;;;16.63;2.92;;;;;;;5.67;100.00;102885.69;5089675;28;20194;-41
2022/01/14 00:47:40;;;;;;;20.40;3.42;;;;;;;5.58;100.00;102872.25;5090921;28;20200;-41
2022/01/14 00:50:08;;;;;;;14.25;3.63;;;;;;;5.63;100.00;102869.66;5091019;28;20178;-42
2022/01/14 00:52:34;;;;;;;21.20;3.17;;;;;;;5.64;100.00;102880.34;5091351;28;20166;-41
2022/01/14 00:54:59;;;;;;;17.00;3.00;;;;;;;5.64;100.00;102880.34;5090838;28;20217;-41
2022/01/14 00:59:14;;;;;;;18.63;3.17;;;;;;;5.60;100.00;102891.78;5090585;28;20669;-40
2022/01/14 01:00:18;;;;;;;15.75;3.03;;;;;;;5.65;100.00;102873.25;5090007;28;20277;-41
2022/01/14 01:02:43;;;;;;;17.85;3.20;;;;;;;5.64;100.00;102866.13;5090594;28;20847;-42
2022/01/14 01:05:12;;;;;;;19.55;3.83;;;;;;;5.64;100.00;102877.66;5090652;28;20197;-43
2022/01/14 01:07:40;;;;;;;20.70;3.55;;;;;;;5.69;100.00;102875.09;5090394;28;20220;-38
2022/01/14 01:10:10;;;;;;;17.00;3.47;;;;;;;5.73;100.00;102879.56;5090657;28;20235;-40
2022/01/14 01:15:12;;;;;;;16.73;3.38;;;;;;;5.58;100.00;102878.47;5090481;28;20301;-41
2022/01/14 01:17:38;;;;;;;15.32;3.35;;;;;;;5.67;100.00;102876.81;5090597;28;20158;-42
2022/01/14 01:20:18;;;;;;;11.80;2.90;;;;;;;5.62;100.00;102871.44;5090352;28;20173;-43
2022/01/14 01:22:48;;;;;;;20.63;4.30;;;;;;;5.66;100.00;102878.56;5089228;28;20185;-42
2022/01/14 01:25:27;;;;;;;13.75;3.30;;;;;;;5.70;100.00;102863.56;5088898;28;20234;-42
2022/01/14 01:27:54;;;;;;;16.95;3.63;;;;;;;5.70;100.00;102863.56;5090490;28;20198;-41
2022/01/14 01:30:49;;;;;;;13.05;2.90;;;;;;;5.71;100.00;102863.59;5090155;28;20174;-43
2022/01/14 01:33:13;;;;;;;19.00;3.50;;;;;;;5.64;100.00;102852.81;5090339;28;20239;-39
2022/01/14 01:35:38;;;;;;;14.10;3.08;;;;;;;5.66;100.00;102846.66;5089959;28;20693;-44
2022/01/14 01:38:04;;;;;;;16.60;3.80;;;;;;;5.70;100.00;102839.63;5090152;28;20166;-42
2022/01/14 01:40:30;;;;;;;22.55;3.38;;;;;;;5.66;100.00;102829.81;5090315;28;20169;-40
2022/01/14 01:42:57;;;;;;;17.08;3.15;;;;;;;5.61;100.00;102844.81;5090158;28;20158;-41
2022/01/14 01:45:25;;;;;;;16.23;3.70;;;;;;;5.66;100.00;102838.66;5090124;28;20239;-41
2022/01/14 01:47:54;;;;;;;14.98;3.17;;;;;;;5.68;100.00;102831.59;5088492;28;20204;-42
2022/01/14 01:50:22;;;;;;;16.70;3.50;;;;;;;5.67;100.00;102828.94;5090177;28;20170;-41
2022/01/14 01:52:48;;;;;;;18.05;3.47;;;;;;;5.70;100.00;102832.53;5089754;28;20674;-42
2022/01/14 01:55:14;;;;;;;15.43;3.63;;;;;;;5.69;100.00;102817.47;5090375;28;20293;-40
2022/01/14 01:57:43;;;;;;;16.42;3.45;;;;;;;5.67;100.00;102816.53;5090055;28;20253;-40
2022/01/14 02:00:11;;;;;;;20.23;3.67;;;;;;;5.71;100.00;102813.06;5089963;28;20170;-41
2022/01/14 02:02:45;;;;;;;23.15;3.85;;;;;;;5.66;100.00;102800.56;5090302;28;20631;-41
2022/01/14 02:05:10;;;;;;;23.40;3.40;;;;;;;5.63;100.00;102798.75;5090020;28;20198;-41
2022/01/14 02:07:39;;;;;;;17.65;3.65;;;;;;;5.60;100.00;102803.13;5089966;28;20200;-41
2022/01/14 02:10:05;;;;;;;14.93;3.20;;;;;;;5.68;100.00;102801.47;5090114;28;20520;-41
2022/01/14 02:12:37;;;;;;;15.73;3.20;;;;;;;5.63;100.00;102805.84;5091964;28;20170;-42
2022/01/14 02:15:10;;;;;;;16.17;2.83;;;;;;;5.78;100.00;102790.09;5092822;28;20743;-40
2022/01/14 02:18:23;;;;;;;18.58;3.60;;;;;;;5.69;100.00;102793.53;5093925;28;20167;-41
2022/01/14 02:23:20;;;;;;;13.82;3.17;;;;;;;5.65;100.00;102782.81;5048811;28;20194;-42
2022/01/14 02:25:46;;;;;;;18.30;3.40;;;;;;;5.73;100.00;102782.06;5094131;28;20255;-43
2022/01/14 02:28:13;;;;;;;19.02;4.28;;;;;;;5.67;100.00;102778.41;5093470;28;20642;-42
2022/01/14 02:30:40;;;;;;;27.48;3.85;;;;;;;5.71;100.00;102767.84;5093893;28;20646;-40
2022/01/14 02:33:08;;;;;;;19.40;3.70;;;;;;;5.66;100.00;102764.22;5093829;28;20614;-42
2022/01/14 02:35:34;;;;;;;17.33;3.60;;;;;;;5.66;100.00;102764.22;5093224;28;20268;-42
2022/01/14 02:38:00;;;;;;;16.42;3.55;;;;;;;5.68;100.00;102767.78;5092265;28;20261;-42
2022/01/14 02:40:27;;;;;;;19.60;3.40;;;;;;;5.74;100.00;102745.72;5093343;28;20193;-40
2022/01/14 02:42:54;;;;;;;17.98;3.17;;;;;;;5.73;100.00;102741.28;5093600;28;20697;-42
2022/01/14 02:45:21;;;;;;;21.50;3.75;;;;;;;5.69;100.00;102721.72;5093307;28;20182;-40
2022/01/14 02:47:47;;;;;;;15.73;2.95;;;;;;;5.66;100.00;102740.28;5095781;28;20473;-42
2022/01/14 02:50:18;;;;;;;17.80;3.67;;;;;;;5.68;100.00;102719.03;5102476;28;20584;-49
2022/01/14 02:52:56;;;;;;;21.45;4.20;;;;;;;5.69;100.00;102727.03;5111504;28;20169;-47
2022/01/14 02:55:29;;;;;;;16.63;3.53;;;;;;;5.72;100.00;102731.50;5106095;28;20702;-40
2022/01/14 02:57:56;;;;;;;21.15;3.55;;;;;;;5.72;100.00;102732.38;5112979;28;20250;-44
2022/01/14 03:00:28;;;;;;;11.40;2.45;;;;;;;5.69;100.00;102727.03;5113381;28;20192;-47
2022/01/14 03:02:54;;;;;;;19.55;2.90;;;;;;;5.72;100.00;102715.53;5113487;28;20219;-42
2022/01/14 03:05:20;;;;;;;17.85;3.20;;;;;;;5.69;100.00;102705.75;5113518;27;20672;-40
2022/01/14 03:07:47;;;;;;;18.48;3.28;;;;;;;5.66;100.00;102729.63;5113051;28;20665;-42
2022/01/14 03:10:15;;;;;;;17.80;3.28;;;;;;;5.69;100.00;102721.72;5113387;28;20173;-43
2022/01/14 03:12:43;;;;;;;15.85;3.53;;;;;;;5.75;100.00;102720.88;5112664;28;20214;-43
2022/01/14 03:15:10;;;;;;;16.88;3.17;;;;;;;5.64;100.00;102714.53;5113163;28;20216;-41
2022/01/14 03:17:35;;;;;;;18.25;3.60;;;;;;;5.62;100.00;102725.19;5113251;28;20215;-42
2022/01/14 03:20:03;;;;;;;15.10;3.15;;;;;;;5.62;100.00;102718.94;5112829;28;20181;-45
2022/01/14 03:22:33;;;;;;;17.63;3.45;;;;;;;5.75;100.00;102721.81;5112828;28;20373;-40
2022/01/14 03:27:43;;;;;;;19.30;3.42;;;;;;;5.69;100.00;102731.47;5112327;28;20222;-46
2022/01/14 03:30:09;;;;;;;16.33;3.80;;;;;;;5.65;100.00;102729.63;5112603;28;20181;-42
2022/01/14 03:32:34;;;;;;;18.42;3.40;;;;;;;5.60;100.00;102744.63;5112882;28;20173;-41
2022/01/14 03:35:00;;;;;;;14.15;3.40;;;;;;;5.66;100.00;102736.72;5112407;28;20642;-44
2022/01/14 03:37:26;;;;;;;19.08;4.13;;;;;;;5.63;100.00;102739.38;5112115;28;20256;-43
2022/01/14 03:39:51;;;;;;;14.23;3.67;;;;;;;5.63;100.00;102766.84;5112689;28;20180;-42
2022/01/14 03:42:16;;;;;;;18.05;3.40;;;;;;;5.73;100.00;102739.50;5112217;28;20222;-45
2022/01/14 03:44:42;;;;;;;20.63;3.30;;;;;;;5.64;100.00;102744.72;5112389;28;20184;-44
2022/01/14 03:47:07;;;;;;;18.83;3.83;;;;;;;5.71;100.00;102759.88;5111795;28;20199;-44
2022/01/14 03:49:32;;;;;;;19.30;3.63;;;;;;;5.68;100.00;102743.84;5112284;28;20229;-40
2022/01/14 03:51:58;;;;;;;20.40;3.88;;;;;;;5.67;100.00;102742.06;5111280;28;20181;-46
2022/01/14 03:54:24;;;;;;;17.42;3.00;;;;;;;5.66;100.00;102742.94;5111956;28;20165;-41
2022/01/14 03:56:49;;;;;;;16.27;3.63;;;;;;;5.65;100.00;102746.47;5111828;28;20200;-40
2022/01/14 03:59:14;;;;;;;25.20;3.67;;;;;;;5.61;100.00;102759.72;5112003;28;20165;-45
2022/01/14 04:01:40;;;;;;;24.83;3.97;;;;;;;5.65;100.00;102745.59;5112346;28;20626;-42
2022/01/14 04:04:05;;;;;;;13.57;3.50;;;;;;;5.59;100.00;102749.06;5111815;28;20559;-41
2022/01/14 04:06:31;;;;;;;14.57;3.47;;;;;;;5.60;100.00;102747.28;5111580;28;20629;-46
2022/01/14 04:08:56;;;;;;;20.13;4.10;;;;;;;5.53;100.00;102741.00;5112281;28;20186;-41
2022/01/14 04:11:22;;;;;;;14.25;3.65;;;;;;;5.51;100.00;102742.72;5111675;28;20527;-42
2022/01/14 04:16:15;;;;;;;23.05;3.63;;;;;;;5.56;100.00;102739.28;5111207;28;20284;-43
2022/01/14 04:18:41;;;;;;;15.50;3.65;;;;;;;5.63;100.00;102737.59;5111949;28;20176;-41
2022/01/14 04:21:06;;;;;;;14.77;3.50;;;;;;;5.52;100.00;102740.09;5111907;28;20602;-42
2022/01/14 04:23:32;;;;;;;17.52;3.53;;;;;;;5.52;100.00;102724.16;5111173;28;20208;-43
2022/01/14 04:25:57;;;;;;;15.27;3.45;;;;;;;5.53;100.00;102735.66;5111413;28;20193;-46
2022/01/14 04:28:25;;;;;;;16.90;3.72;;;;;;;5.46;100.00;102732.03;5111362;28;20289;-42
2022/01/14 04:30:54;;;;;;;11.95;2.88;;;;;;;5.46;100.00;102723.19;5111842;28;20177;-40
2022/01/14 04:33:28;;;;;;;13.70;2.97;;;;;;;5.46;100.00;102732.03;5110082;28;20604;-45
2022/01/14 04:35:58;;;;;;;16.25;3.50;;;;;;;5.47;100.00;102741.81;5111112;28;20209;-44
2022/01/14 04:38:24;;;;;;;15.90;2.85;;;;;;;5.45;100.00;102721.41;5111680;28;20540;-46
2022/01/14 04:40:50;;;;;;;18.90;3.67;;;;;;;5.43;100.00;102708.09;5111230;28;20270;-44
2022/01/14 04:43:19;;;;;;;17.20;3.60;;;;;;;5.46;100.00;102710.78;5111539;28;20203;-40
2022/01/14 04:46:02;;;;;;;20.13;4.18;;;;;;;5.51;100.00;102710.81;5110596;28;20183;-46
2022/01/14 04:48:33;;;;;;;16.02;3.38;;;;;;;5.39;100.00;102700.06;5105821;28;20209;-40
2022/01/14 04:50:59;;;;;;;16.75;3.47;;;;;;;5.37;100.00;102714.19;5111065;28;20256;-44
2022/01/14 04:53:26;;;;;;;12.55;3.45;;;;;;;5.42;100.00;102716.03;5111143;28;20169;-43
2022/01/14 04:55:52;;;;;;;11.88;3.63;;;;;;;5.37;100.00;102722.19;5110977;28;20201;-43
2022/01/14 04:58:18;;;;;;;16.38;3.55;;;;;;;5.37;100.00;102708.88;5109538;28;20217;-41
2022/01/14 05:00:43;;;;;;;17.52;3.47;;;;;;;5.42;100.00;102708.06;5111323;28;20174;-43
2022/01/14 05:03:09;;;;;;;13.55;3.92;;;;;;;5.33;100.00;102709.72;5110923;28;20209;-46
2022/01/14 05:05:39;;;;;;;18.95;3.70;;;;;;;5.39;100.00;102706.25;5095803;28;20852;-40
2022/01/14 05:08:09;;;;;;;20.45;3.53;;;;;;;5.35;100.00;102697.34;5105842;28;20274;-43
2022/01/14 05:10:47;;;;;;;16.88;3.78;;;;;;;5.40;100.00;102697.44;5110857;28;20169;-43
2022/01/14 05:13:12;;;;;;;15.00;3.42;;;;;;;5.42;100.00;102694.75;5111183;28;20666;-43
2022/01/14 05:15:38;;;;;;;14.52;3.53;;;;;;;5.39;100.00;102679.69;5110488;28;20199;-42
2022/01/14 05:18:04;;;;;;;16.10;3.85;;;;;;;5.41;100.00;102674.38;5111181;28;20181;-46
2022/01/14 05:20:29;;;;;;;20.30;3.95;;;;;;;5.38;100.00;102672.59;5110799;28;20626;-41
2022/01/14 05:22:55;;;;;;;17.48;3.78;;;;;;;5.40;100.00;102678.81;5110927;28;20222;-40
2022/01/14 05:25:20;;;;;;;23.67;3.58;;;;;;;5.38;100.00;102677.91;5110516;28;20197;-42
2022/01/14 05:27:45;;;;;;;21.25;3.88;;;;;;;5.39;100.00;102669.03;5110311;28;20210;-41
2022/01/14 05:30:13;;;;;;;15.13;3.13;;;;;;;5.48;100.00;102658.53;5110647;28;20173;-40
2022/01/14 05:32:47;;;;;;;13.25;3.13;;;;;;;5.52;100.00;102646.16;5094233;28;20546;-41
2022/01/14 05:35:15;;;;;;;25.77;4.10;;;;;;;5.38;100.00;102635.38;5090316;28;20670;-43
2022/01/14 05:37:40;;;;;;;15.52;4.03;;;;;;;5.49;100.00;102643.47;5089655;28;20227;-43
2022/01/14 05:40:07;;;;;;;16.95;4.13;;;;;;;5.47;100.00;102645.22;5090273;28;20174;-43
2022/01/14 05:42:34;;;;;;;28.50;4.70;;;;;;;5.45;100.00;102646.97;5090186;28;20170;-41
2022/01/14 05:45:00;;;;;;;17.50;4.00;;;;;;;5.57;100.00;102660.41;5089007;28;20563;-41
2022/01/14 05:47:26;;;;;;;23.48;3.90;;;;;;;5.51;100.00;102645.28;5091799;28;20201;-42
2022/01/14 05:49:51;;;;;;;18.38;3.78;;;;;;;5.52;100.00;102627.56;5094278;28;20165;-40
2022/01/14 05:52:17;;;;;;;14.95;3.78;;;;;;;5.50;100.00;102658.53;5094352;28;20178;-44
2022/01/14 05:54:43;;;;;;;14.45;3.20;;;;;;;5.56;100.00;102640.00;5094083;28;20895;-43
2022/01/14 05:57:08;;;;;;;17.23;3.92;;;;;;;5.57;100.00;102637.38;5094218;28;20169;-40
2022/01/14 05:59:34;;;;;;;22.67;3.88;;;;;;;5.63;100.00;102647.19;5094367;28;20162;-40
2022/01/14 06:01:59;;;;;;;18.08;3.20;;;;;;;5.60;100.00;102647.16;5093961;28;20257;-44
2022/01/14 06:04:25;;;;;;;22.77;3.90;;;;;;;5.60;100.00;102651.56;5094124;28;20642;-40
2022/01/14 06:06:51;;;;;;;18.17;3.63;;;;;;;5.61;100.00;102645.38;5093376;28;20189;-41
2022/01/14 06:09:17;;;;;;;18.20;3.70;;;;;;;5.62;100.00;102645.41;5093843;28;20166;-41
2022/01/14 06:11:42;;;;;;;19.42;4.38;;;;;;;5.61;100.00;102648.03;5094084;28;20196;-41
2022/01/14 06:14:08;;;;;;;22.17;3.83;;;;;;;5.67;100.00;102654.31;5093686;28;20252;-42
2022/01/14 06:16:33;;;;;;;24.00;4.45;;;;;;;5.63;100.00;102663.13;5093486;28;20198;-40
2022/01/14 06:18:59;;;;;;;27.23;4.53;;;;;;;5.63;100.00;102662.25;5094283;28;20272;-42
2022/01/14 06:21:24;;;;;;;26.15;4.47;;;;;;;5.59;100.00;102663.97;5092463;28;20532;-45
2022/01/14 06:23:50;;;;;;;17.88;3.75;;;;;;;5.62;100.00;102669.34;5093385;28;20182;-41
2022/01/14 06:26:15;;;;;;;19.85;4.40;;;;;;;5.61;100.00;102672.84;5093496;28;20182;-40
2022/01/14 06:28:42;;;;;;;22.42;4.20;;;;;;;5.62;100.00;102681.72;5093556;28;20632;-45
2022/01/14 06:31:08;;;;;;;30.63;4.53;;;;;;;5.63;100.00;102662.25;5093262;28;20268;-44
2022/01/14 06:33:33;;;;;;;18.02;3.85;;;;;;;5.66;100.00;102663.16;5093480;28;20204;-43
2022/01/14 06:35:58;;;;;;;19.15;4.63;;;;;;;5.62;100.00;102677.31;5092531;28;20217;-42
2022/01/14 06:38:24;;;;;;;26.13;4.75;;;;;;;5.65;100.00;102677.34;5091781;28;20719;-44
2022/01/14 06:40:49;;;;;;;18.30;3.92;;;;;;;5.62;100.00;102679.06;5093088;28;20174;-47
2022/01/14 06:43:15;;;;;;;27.23;5.07;;;;;;;5.71;100.00;102671.22;5093324;28;20173;-43
2022/01/14 06:45:42;;;;;;;23.17;4.75;;;;;;;5.74;100.00;102671.25;5092771;28;20678;-44
2022/01/14 06:48:07;;;;;;;22.85;5.15;;;;;;;5.72;100.00;102657.91;5093048;28;20193;-43
2022/01/14 06:50:33;;;;;;;27.98;4.05;;;;;;;5.66;100.00;102667.59;5093234;28;20170;-43
2022/01/14 06:52:58;;;;;;;20.65;4.43;;;;;;;5.81;100.00;102669.53;5091485;28;20642;-44
2022/01/14 06:55:24;;;;;;;22.88;4.18;;;;;;;5.72;100.00;102679.19;5093156;28;20201;-44
2022/01/14 06:57:49;;;;;;;24.90;4.18;;;;;;;5.73;100.00;102682.78;5092437;28;20318;-44
2022/01/14 07:00:17;;;;;;;24.25;3.97;;;;;;;5.71;100.00;102671.22;5091743;28;20560;-46
2022/01/14 07:02:42;;;;;;;22.35;4.65;;;;;;;5.77;100.00;102689.88;5092903;28;20166;-45
2022/01/14 07:05:09;;;;;;;27.55;4.75;;;;;;;5.73;100.00;102698.72;5092677;28;20198;-44
2022/01/14 07:07:34;;;;;;;25.20;5.13;;;;;;;5.78;100.00;102711.19;5092549;28;20209;-46
2022/01/14 07:10:01;;;;;;;28.42;4.32;;;;;;;5.91;100.00;102700.69;5092624;28;20807;-41
2022/01/14 07:12:37;;;;;;;22.70;4.60;;;;;;;5.82;100.00;102716.56;5099847;28;20593;-42
2022/01/14 07:15:06;;;;;;;24.60;4.25;;;;;;;5.78;100.00;102707.63;5112653;28;20295;-41
2022/01/14 07:17:31;;;;;;;21.67;4.10;;;;;;;5.77;100.00;102704.09;5111916;28;20252;-42
2022/01/14 07:20:00;;;;;;;29.10;5.15;;;;;;;5.74;100.00;102713.78;5112997;28;20252;-40
2022/01/14 07:22:26;;;;;;;25.25;4.10;;;;;;;5.75;100.00;102721.81;5112664;28;20178;-42
2022/01/14 07:24:52;;;;;;;30.15;4.18;;;;;;;5.77;100.00;102717.41;5112868;28;20252;-41
2022/01/14 07:27:17;;;;;;;26.10;4.57;;;;;;;5.75;100.00;102711.16;5112451;28;20674;-42
2022/01/14 07:29:43;;;;;;;23.20;4.18;;;;;;;5.75;100.00;102710.25;5112846;28;20171;-38
2022/01/14 07:32:08;;;;;;;17.75;4.47;;;;;;;5.74;100.00;102727.09;5112591;28;20173;-41
2022/01/14 07:34:34;;;;;;;31.58;4.55;;;;;;;5.78;100.00;102718.28;5111058;28;20659;-39
2022/01/14 07:37:00;;;;;;;26.38;4.22;;;;;;;5.76;100.00;102723.56;5112346;28;20200;-41
2022/01/14 07:39:26;;;;;;;22.77;4.03;;;;;;;5.78;100.00;102715.63;5112263;28;20208;-39
2022/01/14 07:41:52;;;;;;;35.20;4.70;;;;;;;5.73;100.00;102720.00;5111969;28;20165;-40
2022/01/14 07:44:18;;;;;;;28.90;5.20;;;;;;;5.72;100.00;102721.75;5111019;28;20169;-40
2022/01/14 07:46:44;;;;;;;28.52;4.97;;;;;;;5.71;100.00;102713.78;5112362;28;20295;-41
2022/01/14 07:49:10;;;;;;;34.40;5.70;;;;;;;5.67;100.00;102717.25;5112554;28;20601;-41
2022/01/14 07:51:36;;;;;;;21.58;4.65;;;;;;;5.75;100.00;102713.81;5112512;28;20704;-40
2022/01/14 07:54:05;;;;;;;32.28;5.00;;;;;;;5.72;100.00;102718.19;5112391;28;20252;-41
2022/01/14 07:56:52;;;;;;;38.50;5.07;;;;;;;5.74;100.00;102720.00;5111872;28;20212;-41
2022/01/14 07:59:21;;;;;;;27.38;5.47;;;;;;;5.67;100.00;102730.56;5112062;28;20168;-42
2022/01/14 08:01:47;;;;;;;26.58;4.95;;;;;;;5.66;100.00;102736.72;5111821;28;20260;-42
2022/01/14 08:04:14;;;;;;;30.23;4.78;;;;;;;5.67;100.00;102743.84;5111858;28;20201;-42
2022/01/14 08:06:46;;;;;;;34.35;5.47;;;;;;;5.68;100.00;102729.66;5111933;28;20185;-42
2022/01/14 08:09:12;;;;;;;22.65;4.40;;;;;;;5.72;100.00;102737.69;5111490;28;20197;-42
2022/01/14 08:11:38;;;;;;;28.05;4.75;;;;;;;5.68;100.00;102745.63;5112184;28;20166;-43
2022/01/14 08:14:03;;;;;;;28.30;4.57;;;;;;;5.75;100.00;102740.41;5111681;28;20237;-43
2022/01/14 08:16:28;;;;;;;25.33;3.78;;;;;;;5.76;100.00;102749.28;5111884;28;20668;-41
2022/01/14 08:18:57;;;;;;;32.15;4.72;;;;;;;5.72;100.00;102740.34;5110685;28;20185;-42
2022/01/14 08:21:22;;;;;;;25.60;4.90;;;;;;;5.73;100.00;102743.94;5111978;28;20180;-48
2022/01/14 08:23:48;;;;;;;29.20;5.07;;;;;;;5.72;100.00;102739.47;5110513;28;20634;-48
2022/01/14 08:26:14;;;;;;;24.40;5.15;;;;;;;5.66;100.00;102740.28;5110968;28;20188;-49
2022/01/14 08:28:40;;;;;;;24.30;4.88;;;;;;;5.69;100.00;102737.69;5110216;28;20208;-48
2022/01/14 08:31:06;;;;;;;27.38;5.95;;;;;;;5.82;100.00;102740.50;5111631;27;20236;-46
2022/01/14 08:33:31;;;;;;;25.38;4.45;;;;;;;5.73;100.00;102742.16;5111711;28;20170;-47
2022/01/14 08:35:57;;;;;;;31.98;4.80;;;;;;;5.81;100.00;102742.25;5111027;28;20566;-43
2022/01/14 08:38:22;;;;;;;25.92;5.25;;;;;;;5.74;100.00;102751.03;5109634;28;20170;-43
2022/01/14 08:40:49;;;;;;;26.45;5.05;;;;;;;5.73;100.00;102744.81;5110716;28;20162;-46
2022/01/14 08:43:14;;;;;;;24.13;5.40;;;;;;;5.80;100.00;102753.78;5108050;28;20270;-43
2022/01/14 08:45:40;;;;;;;27.73;5.05;;;;;;;5.77;100.00;102745.72;5110203;28;20675;-45
2022/01/14 08:48:07;;;;;;;23.52;4.70;;;;;;;5.79;100.00;102749.31;5110423;28;20205;-54
2022/01/14 08:50:36;;;;;;;25.75;4.55;;;;;;;5.73;100.00;102746.59;5109684;28;20180;-43
2022/01/14 08:53:09;;;;;;;20.92;4.55;;;;;;;5.76;100.00;102747.50;5109781;28;20219;-43
2022/01/14 08:55:36;;;;;;;21.88;4.30;;;;;;;5.80;100.00;102752.88;5109886;28;20202;-42
2022/01/14 08:58:03;;;;;;;18.67;4.25;;;;;;;5.76;100.00;102746.63;5110276;28;20157;-46
2022/01/14 09:00:29;;;;;;;24.30;4.25;;;;;;;5.76;100.00;102754.59;5110468;28;20219;-44
2022/01/14 09:02:56;;;;;;;19.15;3.85;;;;;;;5.80;100.00;102766.19;5110559;28;20185;-43
2022/01/14 09:05:23;;;;;;;20.80;3.97;;;;;;;5.81;100.00;102782.13;5108804;28;20275;-44
2022/01/14 09:07:50;;;;;;;16.77;4.95;;;;;;;5.81;100.00;102784.81;5109477;28;20689;-46
2022/01/14 09:10:16;;;;;;;13.63;3.97;;;;;;;5.95;100.00;102785.03;5109728;28;20731;-43
2022/01/14 09:12:42;;;;;;;17.38;4.40;;;;;;;5.89;100.00;102792.91;5108441;28;20166;-44
2022/01/14 09:15:09;;;;;;;15.43;4.22;;;;;;;5.92;100.00;102787.59;5108223;28;20583;-45
2022/01/14 09:17:35;;;;;;;20.38;4.18;;;;;;;5.87;100.00;102791.97;5109503;28;20233;-47
2022/01/14 09:20:03;;;;;;;15.88;4.47;;;;;;;5.96;100.00;102798.31;5109953;28;20173;-41
2022/01/14 09:22:31;;;;;;;22.58;5.38;;;;;;;5.87;100.00;102802.63;5109272;28;20157;-42
2022/01/14 09:24:59;;;;;;;13.00;4.60;;;;;;;5.91;100.00;102792.03;5108278;28;20213;-42
2022/01/14 09:27:24;;;;;;;20.17;4.72;;;;;;;5.97;100.00;102797.47;5109741;28;20201;-42
2022/01/14 09:29:50;;;;;;;17.95;4.95;;;;;;;6.03;100.00;102804.63;5110692;28;20649;-43
2022/01/14 09:32:15;;;;;;;29.70;5.10;;;;;;;5.95;100.00;102809.88;5097805;28;20177;-42
2022/01/14 09:34:41;;;;;;;18.35;4.78;;;;;;;5.98;100.00;102812.56;5090341;28;20170;-42
2022/01/14 09:37:07;;;;;;;17.75;4.32;;;;;;;5.99;100.00;102805.44;5090285;28;20258;-43
2022/01/14 09:39:33;;;;;;;24.10;4.55;;;;;;;5.98;100.00;102803.69;5090442;28;20170;-42
2022/01/14 09:41:59;;;;;;;21.27;4.50;;;;;;;6.04;100.00;102805.53;5090590;28;20250;-42
2022/01/14 09:44:24;;;;;;;24.15;5.05;;;;;;;6.01;100.00;102822.31;5090132;28;20173;-42
2022/01/14 09:46:51;;;;;;;22.85;6.22;;;;;;;6.06;100.00;102817.09;5090219;28;20202;-41
2022/01/14 09:49:17;;;;;;;14.45;4.40;;;;;;;6.03;100.00;102831.22;5088986;28;20284;-42
2022/01/14 09:51:43;;;;;;;17.92;4.32;;;;;;;6.10;100.00;102832.19;5090121;28;20639;-41
2022/01/14 09:54:10;;;;;;;25.08;4.80;;;;;;;6.09;100.00;102833.09;5088222;28;20176;-42
2022/01/14 09:56:37;;;;;;;18.35;4.10;;;;;;;6.13;100.00;102827.81;5101794;28;20201;-43
2022/01/14 09:59:03;;;;;;;21.58;4.22;;;;;;;6.16;100.00;102830.50;5089878;28;20557;-42
2022/01/14 10:01:37;;;;;;;18.10;4.05;;;;;;;6.22;100.00;102834.13;5102297;28;20697;-40
2022/01/14 10:04:03;;;;;;;16.63;3.95;;;;;;;6.24;100.00;102830.63;5110495;28;20297;-43
2022/01/14 10:06:44;;;;;;;17.98;4.47;;;;;;;6.26;100.00;102830.63;5109948;28;20189;-42
2022/01/14 10:09:16;;;;;;;14.20;3.88;;;;;;;6.27;100.00;102837.75;5110376;28;20193;-42
2022/01/14 10:11:42;;;;;;;11.32;4.03;;;;;;;6.24;100.00;102843.03;5110652;28;20153;-41
2022/01/14 10:14:17;;;;;;;14.70;3.63;;;;;;;6.26;100.00;102842.19;5110093;28;20530;-42
2022/01/14 10:16:43;;;;;;;19.00;3.78;;;;;;;6.26;100.00;102847.50;5109785;28;20192;-41
2022/01/14 10:19:25;;;;;;;21.25;4.07;;;;;;;6.32;100.00;102834.25;5110262;28;20219;-42
2022/01/14 10:21:51;;;;;;;16.05;3.55;;;;;;;6.33;100.00;102836.03;5110115;28;20518;-43
2022/01/14 10:24:18;;;;;;;17.40;3.58;;;;;;;6.34;100.00;102844.91;5108855;28;20161;-42
2022/01/14 10:26:57;;;;;;;15.60;3.63;;;;;;;6.37;100.00;102836.97;5109355;28;20197;-40
2022/01/14 10:29:38;;;;;;;12.18;3.33;;;;;;;6.44;100.00;102837.94;5109967;28;20169;-42
2022/01/14 10:32:05;;;;;;;17.05;4.30;;;;;;;6.45;100.00;102831.72;5109774;28;20260;-40
2022/01/14 10:34:31;;;;;;;14.50;3.03;;;;;;;6.54;100.00;102838.06;5113487;28;20264;-43
2022/01/14 10:37:15;;;;;;;12.23;3.88;;;;;;;6.53;100.00;102840.69;5113387;28;20193;-42
2022/01/14 10:39:48;;;;;;;10.98;3.25;;;;;;;6.64;100.00;102832.81;5113876;28;20189;-42
2022/01/14 10:42:33;;;;;;;16.90;4.05;;;;;;;6.52;100.00;102823.84;5113500;28;20169;-42
2022/01/14 10:45:23;;;;;;;14.13;3.47;;;;;;;6.57;100.00;102814.13;5113653;28;20243;-44
2022/01/14 10:48:02;;;;;;;13.02;3.33;;;;;;;6.61;100.00;102836.34;5112919;28;20208;-45
2022/01/14 10:50:58;;;;;;;16.83;3.45;;;;;;;6.66;100.00;102825.75;5113227;28;20524;-46
2022/01/14 10:53:26;;;;;;;12.43;3.03;;;;;;;6.64;100.00;102822.16;5113342;28;20220;-45
2022/01/14 10:56:05;;;;;;;9.95;2.47;;;;;;;6.68;100.00;102818.66;5112928;27;20358;-44
2022/01/14 10:58:33;;;;;;;8.60;2.70;;;;;;;6.68;100.00;102816.00;5113319;28;20173;-45
2022/01/14 11:01:02;;;;;;;9.18;2.40;;;;;;;6.71;100.00;102813.34;5112504;28;20466;-45
2022/01/14 11:03:46;;;;;;;10.73;3.03;;;;;;;6.84;100.00;102809.94;5113441;28;20467;-43
2022/01/14 11:06:41;;;;;;;11.32;2.63;;;;;;;6.81;100.00;102810.78;5112792;28;20211;-45
2022/01/14 11:09:08;;;;;;;13.48;2.55;;;;;;;6.76;100.00;102801.00;5113093;28;20201;-45
2022/01/14 11:11:36;;;;;;;8.00;2.10;;;;;;;6.80;100.00;102806.34;5113194;28;20169;-46
2022/01/14 11:14:02;;;;;;;8.90;2.47;;;;;;;6.82;100.00;102814.34;5112805;28;20626;-42
2022/01/14 11:16:28;;;;;;;9.60;2.25;;;;;;;6.76;100.00;102815.19;5110897;28;20212;-44
2022/01/14 11:18:57;;;;;;;8.85;2.08;;;;;;;6.79;100.00;102817.00;5113062;28;20166;-45
2022/01/14 11:24:12;;;;;;;9.60;2.47;;;;;;;6.90;100.00;102796.66;5112609;28;20558;-45
2022/01/14 11:26:40;;;;;;;8.23;2.05;;;;;;;6.97;100.00;102801.16;5112358;28;20295;-45
2022/01/14 11:29:11;;;;;;;7.20;1.58;;;;;;;6.95;100.00;102807.34;5112445;28;20209;-44
2022/01/14 11:31:38;;;;;;;8.98;1.92;;;;;;;6.95;100.00;102802.94;5112578;28;20653;-45
2022/01/14 11:34:07;;;;;;;7.20;1.73;;;;;;;6.99;100.00;102807.41;5112491;28;20180;-45
2022/01/14 11:36:53;;;;;;;4.45;1.13;;;;;;;7.01;100.00;102788.75;5112097;28;20184;-47
2022/01/14 11:39:27;;;;;;;3.35;1.40;;;;;;;6.99;100.00;102791.41;5112740;28;20184;-43
2022/01/14 11:42:04;;;;;;;5.68;1.50;;;;;;;6.99;100.00;102778.06;5112426;28;20176;-45
2022/01/14 11:44:45;;;;;;;5.25;1.05;;;;;;;6.94;100.00;102793.16;5111394;28;20362;-45